Terminal Aerodrome Forecast
Issued by NWS Jackson, KY

Home | Current Version | Previous Version | Text Only | Print | Product List | Glossary On
Versions: 1 2 3 4 5 6 7 8 9 10 11 12 13 14 15 16 17 18 19
351
FTUS43 KJKL 171120
TAFLOZ
TAF
KLOZ 171120Z 1712/1812 20006KT P6SM SKC WS020/25030KT
     FM171300 22006KT P6SM FEW250
     FM171700 23010KT P6SM FEW250
     FM172300 VRB03KT P6SM FEW250=

USA.gov is the U.S. government's official web portal to all federal, state and local government web resources and services.